Time;durP1;ratioP1;P1;durP2;ratioP2;P2;SDS_P1;SDS_P2;PMS_P1;PMS_P2;Temp;Humidity;BMP_temperature;BMP_pressure;BME280_temperature;BME280_humidity;BME280_pressure;Samples;Min_cycle;Max_cycle;Signal;HPM_P1;HPM_P2
2022/04/22 00:01:26;;;;;;;6.95;3.55;;;6.10;99.90;;;;;;5058426;28;20075;-81
2022/04/22 00:03:52;;;;;;;5.53;3.30;;;6.10;99.90;;;;;;5059775;28;20018;-81
2022/04/22 00:06:18;;;;;;;5.55;3.80;;;6.00;99.90;;;;;;5059747;28;20048;-81
2022/04/22 00:08:43;;;;;;;5.32;3.63;;;5.80;99.90;;;;;;5059303;28;20032;-81
2022/04/22 00:13:55;;;;;;;5.85;3.60;;;5.70;99.90;;;;;;5060135;28;20055;-81
2022/04/22 00:16:21;;;;;;;5.38;3.25;;;5.70;99.90;;;;;;5059636;28;20025;-81
2022/04/22 00:18:47;;;;;;;4.28;2.97;;;5.70;99.90;;;;;;5059108;28;20033;-81
2022/04/22 00:21:13;;;;;;;5.18;3.58;;;5.70;99.90;;;;;;5057603;28;20027;-81
2022/04/22 00:23:39;;;;;;;6.15;3.72;;;5.70;99.90;;;;;;5057048;28;20025;-81
2022/04/22 00:26:05;;;;;;;5.20;3.05;;;5.70;99.90;;;;;;5057136;28;20096;-81
2022/04/22 00:28:30;;;;;;;5.07;3.42;;;5.80;99.90;;;;;;5056778;28;20029;-81
2022/04/22 00:30:56;;;;;;;4.68;3.28;;;5.80;99.90;;;;;;5057842;28;20025;-81
2022/04/22 00:33:22;;;;;;;5.40;3.63;;;5.70;99.90;;;;;;5058338;28;20032;-81
2022/04/22 00:35:48;;;;;;;6.32;4.05;;;5.70;99.90;;;;;;5058151;28;20096;-81
2022/04/22 00:38:14;;;;;;;5.85;3.97;;;5.60;99.90;;;;;;5056341;28;20408;-81
2022/04/22 00:40:40;;;;;;;5.72;4.20;;;5.60;99.90;;;;;;5057989;28;20158;-81
2022/04/22 00:43:20;;;;;;;5.75;3.67;;;5.50;99.90;;;;;;5055865;28;20075;-81
2022/04/22 00:45:46;;;;;;;7.22;4.10;;;5.50;99.90;;;;;;5056543;28;20025;-81
2022/04/22 00:48:12;;;;;;;7.97;4.00;;;5.40;99.90;;;;;;5056444;28;20025;-81
2022/04/22 00:50:39;;;;;;;6.30;4.07;;;5.40;99.90;;;;;;5055190;28;20055;-81
2022/04/22 00:53:06;;;;;;;7.07;4.35;;;5.20;99.90;;;;;;5055079;28;20132;-81
2022/04/22 00:55:32;;;;;;;6.45;4.35;;;5.20;99.90;;;;;;5056429;28;20043;-81
2022/04/22 00:57:59;;;;;;;4.57;3.42;;;5.20;99.90;;;;;;5056076;28;20385;-81
2022/04/22 01:00:25;;;;;;;5.43;3.92;;;5.10;99.90;;;;;;5055957;28;20027;-81
2022/04/22 01:02:51;;;;;;;6.10;4.15;;;5.10;99.90;;;;;;5055849;28;20036;-81
2022/04/22 01:10:45;;;;;;;5.70;3.60;;;5.10;99.90;;;;;;5055803;28;20039;-81
2022/04/22 01:13:12;;;;;;;6.28;4.10;;;5.10;99.90;;;;;;5056283;28;20017;-81
2022/04/22 01:15:37;;;;;;;5.03;3.78;;;5.10;99.90;;;;;;5056137;28;20484;-81
2022/04/22 01:18:04;;;;;;;6.45;3.88;;;5.10;99.90;;;;;;5055961;28;20029;-81
2022/04/22 01:20:30;;;;;;;5.30;3.50;;;5.10;99.90;;;;;;5054806;28;20544;-81
2022/04/22 01:22:55;;;;;;;5.22;3.70;;;5.10;99.90;;;;;;5056036;28;20057;-81
2022/04/22 01:25:21;;;;;;;5.93;3.63;;;5.10;99.90;;;;;;5055120;28;20021;-81
2022/04/22 01:27:51;;;;;;;5.30;3.85;;;5.10;99.90;;;;;;5056376;28;20033;-81
2022/04/22 01:30:23;;;;;;;7.10;3.85;;;5.00;99.90;;;;;;5056068;28;20071;-81
2022/04/22 01:32:50;;;;;;;6.38;4.05;;;5.00;99.90;;;;;;5054913;28;20024;-81
2022/04/22 01:35:20;;;;;;;6.20;4.32;;;5.00;99.90;;;;;;5054620;28;20033;-81
2022/04/22 01:37:46;;;;;;;5.88;4.22;;;5.00;99.90;;;;;;5055284;28;20103;-81
2022/04/22 01:40:12;;;;;;;5.57;4.45;;;4.90;99.90;;;;;;5055353;28;20087;-81
2022/04/22 01:42:38;;;;;;;10.20;6.57;;;4.90;99.90;;;;;;5053968;28;20405;-81
2022/04/22 01:45:05;;;;;;;11.15;6.50;;;5.00;99.90;;;;;;5055634;28;20013;-81
2022/04/22 01:47:31;;;;;;;8.43;5.72;;;4.90;99.90;;;;;;5055574;28;20021;-81
2022/04/22 01:49:57;;;;;;;7.20;4.38;;;4.90;99.90;;;;;;5053132;28;20048;-81
2022/04/22 01:52:24;;;;;;;6.80;4.68;;;4.90;99.90;;;;;;5053201;28;20363;-81
2022/04/22 01:54:51;;;;;;;5.60;4.00;;;4.80;99.90;;;;;;5053108;28;20517;-80
2022/04/22 01:57:17;;;;;;;6.55;4.30;;;4.80;99.90;;;;;;5051907;28;20029;-81
2022/04/22 01:59:44;;;;;;;7.80;4.88;;;4.70;99.90;;;;;;5053336;28;20032;-80
2022/04/22 02:02:10;;;;;;;6.82;5.47;;;4.70;99.90;;;;;;5051886;28;20027;-81
2022/04/22 02:04:36;;;;;;;13.02;9.35;;;4.60;99.90;;;;;;5053031;28;20029;-80
2022/04/22 02:07:02;;;;;;;14.63;11.52;;;4.60;99.90;;;;;;5053105;28;20062;-81
2022/04/22 02:09:28;;;;;;;11.50;9.48;;;4.60;99.90;;;;;;5053006;28;20033;-81
2022/04/22 02:11:55;;;;;;;9.80;8.23;;;4.60;99.90;;;;;;5053056;28;20398;-81
2022/04/22 02:14:21;;;;;;;7.82;6.63;;;4.60;99.90;;;;;;5051589;28;20029;-81
2022/04/22 02:16:46;;;;;;;6.75;4.70;;;4.60;99.90;;;;;;5052897;28;20044;-80
2022/04/22 02:19:12;;;;;;;6.28;4.57;;;4.50;99.90;;;;;;5052927;28;20029;-81
2022/04/22 02:21:38;;;;;;;6.50;4.45;;;4.50;99.90;;;;;;5052863;28;20442;-81
2022/04/22 02:24:04;;;;;;;7.35;4.60;;;4.50;99.90;;;;;;5051516;28;20025;-80
2022/04/22 02:28:31;;;;;;;6.50;4.32;;;4.50;99.90;;;;;;5052840;28;20021;-81
2022/04/22 02:29:16;;;;;;;7.50;4.57;;;4.50;99.90;;;;;;5052686;28;20021;-81
2022/04/22 02:31:42;;;;;;;6.93;5.07;;;4.40;99.90;;;;;;5052766;28;20032;-81
2022/04/22 02:34:08;;;;;;;7.63;4.82;;;4.40;99.90;;;;;;5053182;28;20023;-81
2022/04/22 02:36:33;;;;;;;7.70;5.05;;;4.30;99.90;;;;;;5051513;28;20116;-81
2022/04/22 02:38:59;;;;;;;8.32;5.22;;;4.30;99.90;;;;;;5051468;28;20036;-81
2022/04/22 02:46:53;;;;;;;6.93;4.47;;;4.30;99.90;;;;;;5056863;28;20108;-81
2022/04/22 02:49:18;;;;;;;7.35;5.03;;;4.30;99.90;;;;;;5056700;28;20493;-81
2022/04/22 02:51:44;;;;;;;8.68;5.53;;;4.30;99.90;;;;;;5055197;28;20520;-81
2022/04/22 02:54:10;;;;;;;12.32;7.20;;;4.30;99.90;;;;;;5056703;28;20389;-80
2022/04/22 02:56:35;;;;;;;8.98;5.03;;;4.20;99.90;;;;;;5055203;28;20025;-81
2022/04/22 02:59:02;;;;;;;9.30;5.20;;;4.10;99.90;;;;;;5056156;28;20033;-81
2022/04/22 03:01:28;;;;;;;6.93;4.50;;;4.00;99.90;;;;;;5056205;28;20071;-81
2022/04/22 03:03:54;;;;;;;6.85;4.43;;;4.00;99.90;;;;;;5055705;28;20021;-81
2022/04/22 03:06:20;;;;;;;8.65;5.47;;;3.90;99.90;;;;;;5056067;28;20048;-81
2022/04/22 03:08:46;;;;;;;7.72;4.80;;;3.90;99.90;;;;;;5056357;28;20036;-81
2022/04/22 03:11:20;;;;;;;6.78;4.75;;;3.90;99.90;;;;;;5056333;28;20025;-81
2022/04/22 03:13:45;;;;;;;7.80;4.53;;;3.90;99.90;;;;;;5056325;28;20036;-81
2022/04/22 03:16:11;;;;;;;7.90;5.03;;;3.90;99.90;;;;;;5055813;28;20032;-81
2022/04/22 03:18:37;;;;;;;8.52;5.32;;;3.90;99.90;;;;;;5055975;28;20021;-81
2022/04/22 03:21:03;;;;;;;8.93;6.55;;;4.00;99.90;;;;;;5056334;28;20022;-81
2022/04/22 03:23:28;;;;;;;8.30;5.78;;;4.00;99.90;;;;;;5056108;28;20138;-81
2022/04/22 03:25:54;;;;;;;7.82;5.13;;;3.90;99.90;;;;;;5055846;28;20107;-81
2022/04/22 03:28:21;;;;;;;7.97;5.15;;;3.90;99.90;;;;;;5055856;28;20024;-81
2022/04/22 03:30:48;;;;;;;8.65;5.15;;;3.90;99.90;;;;;;5055791;28;20188;-81
2022/04/22 03:33:14;;;;;;;6.70;4.65;;;3.90;99.90;;;;;;5055681;28;20021;-81
2022/04/22 03:35:39;;;;;;;10.30;5.75;;;3.90;99.90;;;;;;5055702;28;20040;-81
2022/04/22 03:38:05;;;;;;;9.75;6.60;;;3.90;99.90;;;;;;5054469;28;20470;-81
2022/04/22 03:40:31;;;;;;;13.52;9.13;;;3.80;99.90;;;;;;5055857;28;20040;-80
2022/04/22 03:42:56;;;;;;;13.43;9.00;;;3.80;99.90;;;;;;5055864;28;20504;-81
2022/04/22 03:45:22;;;;;;;11.93;7.53;;;3.80;99.90;;;;;;5057269;28;20505;-81
2022/04/22 03:47:48;;;;;;;10.13;6.30;;;3.80;99.90;;;;;;5059522;28;20032;-81
2022/04/22 03:50:14;;;;;;;10.40;6.60;;;3.80;99.90;;;;;;5055821;28;20412;-81
2022/04/22 03:52:40;;;;;;;9.95;6.20;;;3.80;99.90;;;;;;5056052;28;20036;-81
2022/04/22 03:55:06;;;;;;;9.70;6.45;;;3.80;99.90;;;;;;5055093;28;20025;-80
2022/04/22 04:00:16;;;;;;;8.55;6.05;;;3.80;99.90;;;;;;5056644;28;20528;-80
2022/04/22 04:02:42;;;;;;;8.48;5.25;;;3.80;99.90;;;;;;5054430;28;20025;-80
2022/04/22 04:05:08;;;;;;;8.02;5.10;;;3.80;99.90;;;;;;5053590;28;20523;-80
2022/04/22 04:07:34;;;;;;;7.63;4.70;;;3.80;99.90;;;;;;5054801;28;20393;-80
2022/04/22 04:18:12;;;;;;;7.07;4.38;;;3.70;99.90;;;;;;5056257;28;20028;-81
2022/04/22 04:23:22;;;;;;;8.23;5.15;;;3.60;99.90;;;;;;5058006;28;20082;-81
2022/04/22 04:25:47;;;;;;;6.35;4.97;;;3.60;99.90;;;;;;5057834;28;20080;-80
2022/04/22 04:28:15;;;;;;;8.50;4.40;;;3.60;99.90;;;;;;5055922;28;20021;-80
2022/04/22 04:30:42;;;;;;;7.88;5.03;;;3.60;99.90;;;;;;5054876;28;20024;-80
2022/04/22 04:33:08;;;;;;;8.80;5.03;;;3.60;99.90;;;;;;5055673;28;20033;-80
2022/04/22 04:35:35;;;;;;;7.93;5.15;;;3.60;99.90;;;;;;5055981;28;20052;-78
2022/04/22 04:38:04;;;;;;;7.30;5.10;;;3.60;99.90;;;;;;5056000;28;20021;-78
2022/04/22 04:40:30;;;;;;;7.60;5.43;;;3.60;99.90;;;;;;5056097;28;20460;-79
2022/04/22 04:42:55;;;;;;;7.05;5.35;;;3.60;99.90;;;;;;5055000;28;20056;-79
2022/04/22 04:45:21;;;;;;;7.15;5.00;;;3.50;99.90;;;;;;5054753;28;20474;-79
2022/04/22 04:47:47;;;;;;;8.70;5.15;;;3.50;99.90;;;;;;5054477;28;20063;-79
2022/04/22 04:50:13;;;;;;;8.57;5.75;;;3.60;99.90;;;;;;5054385;28;20052;-79
2022/04/22 04:52:41;;;;;;;7.25;5.22;;;3.60;99.90;;;;;;5054335;28;20532;-79
2022/04/22 04:55:11;;;;;;;10.18;6.53;;;3.50;99.90;;;;;;5055572;28;20029;-78
2022/04/22 04:57:37;;;;;;;8.82;5.95;;;3.50;99.90;;;;;;5054104;28;20040;-79
2022/04/22 05:00:08;;;;;;;14.25;8.45;;;3.40;99.90;;;;;;5055596;28;20021;-79
2022/04/22 05:02:34;;;;;;;11.75;7.32;;;3.30;99.90;;;;;;5055503;28;20024;-78
2022/04/22 05:05:00;;;;;;;9.85;6.25;;;3.30;99.90;;;;;;5055610;28;20029;-78
2022/04/22 05:07:26;;;;;;;9.35;6.22;;;3.20;99.90;;;;;;5054128;28;20029;-79
2022/04/22 05:09:52;;;;;;;8.70;5.80;;;3.20;99.90;;;;;;5055347;28;20028;-79
2022/04/22 05:12:18;;;;;;;8.48;5.57;;;3.20;99.90;;;;;;5055289;28;20469;-79
2022/04/22 05:14:46;;;;;;;8.88;5.97;;;3.20;99.90;;;;;;5054954;28;20033;-78
2022/04/22 05:17:12;;;;;;;11.10;6.70;;;3.30;99.90;;;;;;5055741;28;20067;-79
2022/04/22 05:19:38;;;;;;;14.07;7.05;;;3.40;99.90;;;;;;5053881;28;20112;-79
2022/04/22 05:22:03;;;;;;;11.48;6.63;;;3.40;99.90;;;;;;5054194;28;20071;-79
2022/04/22 05:24:31;;;;;;;9.95;6.30;;;3.50;99.90;;;;;;5052775;28;20493;-78
2022/04/22 05:26:57;;;;;;;10.10;6.10;;;3.50;99.90;;;;;;5053995;28;20049;-79
2022/04/22 05:34:51;;;;;;;10.70;6.18;;;3.70;99.90;;;;;;5054068;28;20079;-79
2022/04/22 05:37:17;;;;;;;10.95;6.30;;;3.70;99.90;;;;;;5053839;28;20029;-79
2022/04/22 05:39:43;;;;;;;11.85;6.90;;;3.70;99.90;;;;;;5053556;28;20082;-79
2022/04/22 05:42:09;;;;;;;11.88;7.40;;;3.70;99.90;;;;;;5052519;28;20021;-79
2022/04/22 05:44:35;;;;;;;11.82;6.80;;;3.80;99.90;;;;;;5053740;28;20032;-79
2022/04/22 05:47:01;;;;;;;12.13;6.15;;;3.80;99.90;;;;;;5053848;28;20017;-79
2022/04/22 05:49:27;;;;;;;12.68;6.85;;;3.80;99.90;;;;;;5052563;28;20021;-79
2022/04/22 05:51:54;;;;;;;12.20;6.40;;;3.90;99.90;;;;;;5053991;28;20068;-79
2022/04/22 05:54:20;;;;;;;10.23;5.70;;;3.90;99.90;;;;;;5053977;28;20491;-78
2022/04/22 05:56:46;;;;;;;9.05;5.18;;;3.90;99.90;;;;;;5053635;28;20101;-79
2022/04/22 05:59:11;;;;;;;9.70;5.68;;;4.00;99.90;;;;;;5054054;28;20373;-79
2022/04/22 06:01:37;;;;;;;9.38;5.60;;;4.00;99.90;;;;;;5053657;28;20033;-79
2022/04/22 06:04:03;;;;;;;7.78;5.65;;;4.10;99.90;;;;;;5053341;28;20025;-78
2022/04/22 06:06:28;;;;;;;10.73;6.25;;;4.10;99.90;;;;;;5053716;28;20540;-79
2022/04/22 06:11:38;;;;;;;10.48;6.38;;;4.20;99.90;;;;;;5054020;28;20040;-79
2022/04/22 06:14:04;;;;;;;13.57;8.30;;;4.20;99.90;;;;;;5052587;28;20025;-78
2022/04/22 06:16:29;;;;;;;17.85;8.48;;;4.30;99.90;;;;;;5053876;28;20036;-78
2022/04/22 06:18:55;;;;;;;14.95;9.35;;;4.30;99.90;;;;;;5056394;28;20485;-79
2022/04/22 06:21:21;;;;;;;14.18;8.27;;;4.30;99.90;;;;;;5057714;28;20025;-79
2022/04/22 06:23:47;;;;;;;11.73;8.10;;;4.30;99.90;;;;;;5058083;28;20052;-79
2022/04/22 06:26:12;;;;;;;14.15;7.47;;;4.40;99.90;;;;;;5057912;28;20021;-79
2022/04/22 06:28:38;;;;;;;17.40;8.38;;;4.40;99.90;;;;;;5057677;28;20396;-79
2022/04/22 06:31:04;;;;;;;14.93;9.20;;;4.40;99.90;;;;;;5056937;28;20493;-79
2022/04/22 06:33:30;;;;;;;13.55;8.70;;;4.50;99.90;;;;;;5057114;28;20063;-79
2022/04/22 06:36:00;;;;;;;14.40;8.48;;;4.50;99.90;;;;;;5057129;28;20025;-79
2022/04/22 06:38:27;;;;;;;14.80;8.40;;;4.60;99.90;;;;;;5057221;28;20496;-79
2022/04/22 06:46:22;;;;;;;22.20;11.10;;;4.90;99.90;;;;;;5057088;28;20104;-78
2022/04/22 06:48:48;;;;;;;37.22;17.50;;;4.90;99.90;;;;;;5055161;28;20033;-78
2022/04/22 06:51:17;;;;;;;26.48;14.05;;;4.90;99.90;;;;;;5056483;28;20397;-79
2022/04/22 06:53:43;;;;;;;21.52;11.35;;;5.00;99.90;;;;;;5056683;28;20150;-79
2022/04/22 06:56:09;;;;;;;19.75;11.20;;;5.00;99.90;;;;;;5056551;28;20048;-79
2022/04/22 06:58:37;;;;;;;19.15;11.38;;;5.10;99.90;;;;;;5056172;28;20021;-79
2022/04/22 07:01:04;;;;;;;17.75;10.63;;;5.20;99.90;;;;;;5056418;28;20135;-78
2022/04/22 07:03:30;;;;;;;23.38;12.85;;;5.30;99.90;;;;;;5056467;28;20024;-79
2022/04/22 07:05:56;;;;;;;18.73;11.95;;;5.30;99.90;;;;;;5056030;28;20029;-79
2022/04/22 07:08:22;;;;;;;19.65;11.85;;;5.40;99.90;;;;;;5054886;28;20057;-78
2022/04/22 07:10:50;;;;;;;22.35;12.23;;;5.50;99.90;;;;;;5056364;28;20028;-79
2022/04/22 07:13:17;;;;;;;17.27;11.52;;;5.60;99.90;;;;;;5056301;28;20079;-79
2022/04/22 07:15:48;;;;;;;15.98;11.30;;;5.60;99.90;;;;;;5055912;28;20033;-79
2022/04/22 07:18:14;;;;;;;23.00;12.18;;;5.60;99.90;;;;;;5056201;28;20492;-79
2022/04/22 07:20:41;;;;;;;19.40;11.73;;;5.80;99.90;;;;;;5054548;28;20029;-79
2022/04/22 07:23:07;;;;;;;19.20;12.63;;;5.80;99.90;;;;;;5055857;28;20427;-79
2022/04/22 07:25:33;;;;;;;21.63;12.43;;;5.90;99.90;;;;;;5055991;28;20099;-79
2022/04/22 07:27:59;;;;;;;21.20;13.32;;;6.00;99.90;;;;;;5056317;28;20053;-79
2022/04/22 07:30:25;;;;;;;23.23;14.77;;;6.10;99.90;;;;;;5054424;28;20388;-79
2022/04/22 07:32:51;;;;;;;20.05;12.90;;;6.10;99.90;;;;;;5055915;28;20053;-79
2022/04/22 07:35:19;;;;;;;25.17;14.43;;;6.20;99.90;;;;;;5055731;28;20048;-79
2022/04/22 07:37:47;;;;;;;21.48;12.57;;;6.30;99.90;;;;;;5055365;28;20031;-79
2022/04/22 07:40:15;;;;;;;17.98;11.98;;;6.40;99.90;;;;;;5055306;28;20385;-79
2022/04/22 07:46:46;;;;;;;15.85;11.32;;;6.40;99.90;;;;;;5055472;28;20489;-79
2022/04/22 07:48:12;;;;;;;19.42;12.60;;;6.60;99.90;;;;;;5055517;28;20035;-79
2022/04/22 07:50:38;;;;;;;16.75;11.70;;;6.80;99.90;;;;;;5054079;28;20032;-79
2022/04/22 07:53:04;;;;;;;15.95;11.18;;;6.90;99.90;;;;;;5055704;28;20070;-79
2022/04/22 07:55:29;;;;;;;14.98;10.30;;;7.00;99.90;;;;;;5055440;28;20032;-79
2022/04/22 07:57:56;;;;;;;15.63;9.55;;;7.10;99.90;;;;;;5055146;28;20017;-79
2022/04/22 08:00:22;;;;;;;20.00;12.52;;;7.20;99.90;;;;;;5053985;28;20028;-79
2022/04/22 08:02:49;;;;;;;16.70;11.57;;;7.30;99.90;;;;;;5055287;28;20017;-79
2022/04/22 08:05:15;;;;;;;17.73;12.43;;;7.40;99.90;;;;;;5055217;28;20416;-78
2022/04/22 08:07:40;;;;;;;15.98;11.75;;;7.50;99.90;;;;;;5055329;28;20021;-79
2022/04/22 08:10:06;;;;;;;17.25;11.38;;;7.50;99.90;;;;;;5055412;28;20041;-79
2022/04/22 08:12:33;;;;;;;16.55;11.90;;;7.70;99.90;;;;;;5054855;28;20363;-79
2022/04/22 08:15:00;;;;;;;15.98;12.70;;;7.80;99.90;;;;;;5055171;28;20028;-78
2022/04/22 08:17:26;;;;;;;17.25;12.18;;;7.80;99.90;;;;;;5055096;28;20610;-79
2022/04/22 08:19:52;;;;;;;20.10;12.68;;;7.90;99.90;;;;;;5053435;28;20051;-78
2022/04/22 08:22:18;;;;;;;20.30;13.25;;;8.00;99.90;;;;;;5054764;28;20103;-79
2022/04/22 08:24:43;;;;;;;15.30;11.60;;;8.10;99.90;;;;;;5053306;28;20025;-79
2022/04/22 08:27:10;;;;;;;19.98;13.63;;;8.20;99.90;;;;;;5054558;28;20017;-79
2022/04/22 08:29:37;;;;;;;19.20;12.57;;;8.20;99.90;;;;;;5054652;28;20053;-79
2022/04/22 08:32:03;;;;;;;16.40;11.68;;;8.30;99.90;;;;;;5054440;28;20075;-79
2022/04/22 08:34:29;;;;;;;15.57;11.30;;;8.40;99.90;;;;;;5054287;28;20021;-78
2022/04/22 08:36:55;;;;;;;17.15;12.27;;;8.50;99.90;;;;;;5053326;28;20036;-78
2022/04/22 08:39:21;;;;;;;18.60;12.38;;;8.50;99.90;;;;;;5052806;28;20029;-78
2022/04/22 08:41:48;;;;;;;17.35;13.23;;;8.70;99.90;;;;;;5053983;28;20024;-79
2022/04/22 08:44:14;;;;;;;20.65;14.43;;;8.80;99.90;;;;;;5054182;28;20031;-79
2022/04/22 08:52:11;;;;;;;17.30;11.30;;;9.20;99.90;;;;;;5054879;28;20112;-78
2022/04/22 08:54:45;;;;;;;14.90;11.02;;;9.30;99.90;;;;;;5054369;28;20059;-79
2022/04/22 08:57:11;;;;;;;12.95;9.88;;;9.40;99.90;;;;;;5052837;28;20022;-78
2022/04/22 08:59:37;;;;;;;13.55;9.98;;;9.50;99.90;;;;;;5052773;28;20397;-79
2022/04/22 09:02:03;;;;;;;15.23;9.15;;;9.60;99.90;;;;;;5054031;28;20032;-79
2022/04/22 09:04:29;;;;;;;14.73;9.45;;;9.80;99.90;;;;;;5052564;28;20079;-79
2022/04/22 09:06:56;;;;;;;12.77;8.32;;;9.90;99.90;;;;;;5054571;28;20398;-79
2022/04/22 09:09:22;;;;;;;14.80;9.38;;;9.90;99.90;;;;;;5054914;28;20029;-79
2022/04/22 09:11:48;;;;;;;11.43;7.60;;;10.00;99.90;;;;;;5054183;28;20017;-79
2022/04/22 09:14:20;;;;;;;10.45;7.18;;;10.10;99.90;;;;;;5054114;28;20032;-78
2022/04/22 09:16:46;;;;;;;12.73;7.47;;;10.30;99.90;;;;;;5053814;28;20121;-79
2022/04/22 09:19:12;;;;;;;10.75;7.25;;;10.40;99.70;;;;;;5053727;28;20025;-79
2022/04/22 09:21:39;;;;;;;8.48;6.60;;;10.60;99.00;;;;;;5052543;28;20024;-79
2022/04/22 09:24:14;;;;;;;11.70;7.25;;;10.70;98.70;;;;;;5054170;28;20025;-79
2022/04/22 09:26:40;;;;;;;9.52;6.38;;;10.90;97.90;;;;;;5052488;28;20423;-79
2022/04/22 09:29:06;;;;;;;8.80;6.20;;;11.10;98.30;;;;;;5052614;28;20021;-79
2022/04/22 09:31:46;;;;;;;8.48;6.78;;;11.20;98.00;;;;;;5053659;28;20035;-79
2022/04/22 09:34:12;;;;;;;7.85;5.85;;;11.40;98.00;;;;;;5053462;28;20481;-79
2022/04/22 09:44:55;;;;;;;8.15;5.95;;;11.70;95.70;;;;;;5053615;28;20118;-79
2022/04/22 09:47:24;;;;;;;9.75;6.07;;;11.80;94.50;;;;;;5053719;28;20017;-79
2022/04/22 09:49:50;;;;;;;11.75;6.25;;;11.80;94.00;;;;;;5052345;28;20021;-79
2022/04/22 09:52:27;;;;;;;10.20;6.57;;;11.90;94.50;;;;;;5053614;28;20128;-78
2022/04/22 09:54:59;;;;;;;9.60;5.70;;;11.90;95.10;;;;;;5057864;28;20439;-79
2022/04/22 09:57:25;;;;;;;9.07;6.47;;;12.00;94.90;;;;;;5057594;28;20388;-79
2022/04/22 09:59:52;;;;;;;9.23;6.25;;;12.10;94.60;;;;;;5059479;28;20021;-79
2022/04/22 10:02:24;;;;;;;10.02;5.85;;;12.10;93.50;;;;;;5062120;28;20048;-79
2022/04/22 10:04:54;;;;;;;10.57;6.07;;;12.30;93.60;;;;;;5064960;28;20028;-80
2022/04/22 10:07:25;;;;;;;7.07;5.18;;;12.40;93.30;;;;;;5065565;28;20047;-79
2022/04/22 10:09:54;;;;;;;8.65;5.85;;;12.40;91.60;;;;;;5063847;28;20477;-79
2022/04/22 10:12:22;;;;;;;7.15;4.85;;;12.50;91.80;;;;;;5057558;28;20053;-79
2022/04/22 10:14:53;;;;;;;7.28;5.32;;;12.60;91.10;;;;;;5056434;28;20025;-79
2022/04/22 10:17:20;;;;;;;8.00;5.20;;;12.80;91.40;;;;;;5057238;28;20074;-79
2022/04/22 10:19:46;;;;;;;8.20;5.43;;;12.90;92.00;;;;;;5057256;28;20075;-79
2022/04/22 10:22:13;;;;;;;7.18;5.38;;;13.00;91.60;;;;;;5059357;28;20059;-79
2022/04/22 10:24:40;;;;;;;6.55;4.93;;;13.10;89.10;;;;;;5059483;28;20041;-79
2022/04/22 10:27:08;;;;;;;7.03;4.28;;;13.10;90.00;;;;;;5057296;28;20358;-79
2022/04/22 10:29:35;;;;;;;5.90;4.65;;;13.30;90.30;;;;;;5057306;28;20025;-78
2022/04/22 10:32:04;;;;;;;6.85;4.50;;;13.30;88.30;;;;;;5058343;28;20056;-79
2022/04/22 10:34:41;;;;;;;9.40;5.13;;;13.50;88.80;;;;;;5055647;28;20025;-79
2022/04/22 10:37:27;;;;;;;7.53;5.00;;;13.60;90.70;;;;;;5057243;28;20025;-79
2022/04/22 10:39:55;;;;;;;7.22;5.47;;;13.70;88.50;;;;;;5056914;28;20633;-79
2022/04/22 10:42:32;;;;;;;12.95;4.60;;;13.80;87.40;;;;;;5056858;28;20450;-78
2022/04/22 10:47:53;;;;;;;7.95;5.63;;;13.90;86.00;;;;;;5056632;28;20024;-79
2022/04/22 10:50:25;;;;;;;7.50;5.22;;;13.90;87.90;;;;;;5056683;28;20017;-79
2022/04/22 10:53:04;;;;;;;5.20;4.15;;;14.00;86.00;;;;;;5056574;28;20020;-79
2022/04/22 10:55:31;;;;;;;7.35;4.47;;;14.00;85.40;;;;;;5057046;28;20017;-79
2022/04/22 10:58:12;;;;;;;6.85;4.30;;;14.10;87.10;;;;;;5056774;28;20354;-79
2022/04/22 11:00:43;;;;;;;5.80;4.28;;;14.10;87.10;;;;;;5056459;28;20025;-79
2022/04/22 11:03:13;;;;;;;;;;;14.20;84.90;;;;;;5057257;28;20021;-79
2022/04/22 11:05:59;;;;;;;5.15;3.50;;;14.20;87.00;;;;;;5056201;28;19944;-79
2022/04/22 11:08:31;;;;;;;6.40;4.20;;;14.30;85.70;;;;;;5056768;28;20049;-79
2022/04/22 11:11:00;;;;;;;7.50;3.75;;;14.40;85.00;;;;;;5057038;28;20108;-79
2022/04/22 11:13:38;;;;;;;4.53;3.30;;;14.40;84.90;;;;;;5056657;28;20104;-79
2022/04/22 11:16:09;;;;;;;4.32;3.38;;;14.50;85.20;;;;;;5055687;28;20538;-79
2022/04/22 11:18:37;;;;;;;4.35;3.28;;;14.60;83.20;;;;;;5061150;28;20036;-79
2022/04/22 11:21:19;;;;;;;4.72;3.00;;;14.60;81.90;;;;;;5056727;28;20025;-79
2022/04/22 11:23:46;;;;;;;4.05;2.65;;;14.60;81.50;;;;;;5056439;28;20017;-79
2022/04/22 11:26:16;;;;;;;4.65;3.00;;;14.70;80.90;;;;;;5054915;28;20021;-79
2022/04/22 11:28:45;;;;;;;4.30;3.20;;;14.80;80.70;;;;;;5055188;28;20029;-79
2022/04/22 11:31:12;;;;;;;4.05;2.92;;;14.80;77.80;;;;;;5056511;28;20070;-78
2022/04/22 11:33:50;;;;;;;5.20;3.28;;;14.90;77.70;;;;;;5056256;28;20481;-79
2022/04/22 11:36:15;;;;;;;3.72;3.20;;;15.00;78.80;;;;;;5052425;28;20075;-78
2022/04/22 11:38:49;;;;;;;5.68;3.60;;;15.00;80.40;;;;;;5052086;28;20112;-78
2022/04/22 11:41:16;;;;;;;4.35;2.90;;;15.10;79.90;;;;;;5054465;28;20113;-78
2022/04/22 11:43:43;;;;;;;4.63;3.17;;;15.20;79.40;;;;;;5056196;28;20017;-78
2022/04/22 11:46:12;;;;;;;3.50;2.42;;;15.20;77.90;;;;;;5060326;28;20016;-79
2022/04/22 11:48:45;;;;;;;5.00;3.50;;;15.10;77.40;;;;;;5058179;28;20087;-78
2022/04/22 11:51:11;;;;;;;4.60;3.10;;;15.00;75.10;;;;;;5061600;28;20044;-79
2022/04/22 11:53:44;;;;;;;5.10;2.75;;;15.10;76.50;;;;;;5070461;28;20025;-78
2022/04/22 11:56:10;;;;;;;4.72;3.00;;;15.10;76.10;;;;;;5065177;28;20505;-79
2022/04/22 11:58:35;;;;;;;7.93;3.38;;;15.20;76.60;;;;;;5068146;28;20033;-79
2022/04/22 12:06:31;;;;;;;5.18;3.10;;;15.30;75.20;;;;;;5072322;28;20116;-78
2022/04/22 12:09:02;;;;;;;5.28;3.92;;;15.40;74.40;;;;;;5071937;28;20047;-79
2022/04/22 12:11:28;;;;;;;5.22;3.38;;;15.40;74.00;;;;;;5072647;28;20032;-79
2022/04/22 12:13:55;;;;;;;5.93;3.55;;;15.50;74.30;;;;;;5072803;28;20060;-79
2022/04/22 12:16:23;;;;;;;5.00;3.42;;;15.50;73.90;;;;;;5068578;28;20053;-79
2022/04/22 12:18:50;;;;;;;4.72;3.15;;;15.40;73.20;;;;;;5068192;28;20051;-79
2022/04/22 12:21:20;;;;;;;6.32;3.80;;;15.40;74.50;;;;;;5067879;28;20025;-79
2022/04/22 12:23:48;;;;;;;5.50;3.42;;;15.30;73.60;;;;;;5069573;28;20402;-79
2022/04/22 12:26:22;;;;;;;4.68;3.75;;;15.30;74.90;;;;;;5067838;28;20025;-79
2022/04/22 12:28:57;;;;;;;4.57;3.40;;;15.20;74.70;;;;;;5068010;28;20628;-79
2022/04/22 12:31:24;;;;;;;4.47;3.40;;;15.20;75.20;;;;;;5067935;28;20048;-79
2022/04/22 12:34:04;;;;;;;5.80;3.88;;;15.20;74.40;;;;;;5055468;28;20139;-79
2022/04/22 12:36:34;;;;;;;5.22;4.00;;;15.20;74.40;;;;;;5056438;28;20469;-79
2022/04/22 12:38:59;;;;;;;7.68;4.22;;;15.10;73.60;;;;;;5054201;28;20436;-79
2022/04/22 12:41:25;;;;;;;8.13;4.25;;;15.10;74.60;;;;;;5055055;28;20087;-78
2022/04/22 12:43:53;;;;;;;5.78;4.03;;;15.10;74.90;;;;;;5054651;28;20025;-78
2022/04/22 12:52:31;;;;;;;8.80;5.18;;;15.00;76.00;;;;;;5054727;28;20116;-78
2022/04/22 12:55:08;;;;;;;7.65;5.15;;;15.00;75.20;;;;;;5054555;28;20070;-79
2022/04/22 12:57:36;;;;;;;7.40;5.03;;;14.90;76.40;;;;;;5054702;28;20083;-78
2022/04/22 13:00:16;;;;;;;7.88;5.30;;;14.80;75.80;;;;;;5053473;28;20029;-78
2022/04/22 13:02:42;;;;;;;7.57;5.10;;;14.80;76.50;;;;;;5053052;28;20021;-78
2022/04/22 13:05:19;;;;;;;7.75;5.30;;;14.70;77.60;;;;;;5054640;28;20032;-78
2022/04/22 13:07:52;;;;;;;7.68;5.82;;;14.70;76.30;;;;;;5054540;28;20021;-78
2022/04/22 13:10:20;;;;;;;7.72;5.53;;;14.60;75.20;;;;;;5053138;28;20025;-78
2022/04/22 13:12:48;;;;;;;7.78;5.20;;;14.50;77.70;;;;;;5054387;28;20017;-78
2022/04/22 13:15:19;;;;;;;10.38;5.70;;;14.40;77.80;;;;;;5052896;28;20021;-78
2022/04/22 13:17:50;;;;;;;9.35;5.57;;;14.40;77.50;;;;;;5054298;28;20013;-78
2022/04/22 13:20:20;;;;;;;62.25;9.32;;;14.40;78.90;;;;;;5054325;28;20056;-78
2022/04/22 13:22:48;;;;;;;19.70;8.07;;;14.30;80.00;;;;;;5052868;28;20109;-78
2022/04/22 13:25:15;;;;;;;11.30;6.32;;;14.30;80.00;;;;;;5054276;28;20032;-78
2022/04/22 13:27:41;;;;;;;15.38;7.72;;;14.40;78.70;;;;;;5054442;28;20021;-78
2022/04/22 13:30:11;;;;;;;14.77;6.80;;;14.40;79.50;;;;;;5053970;28;20033;-78
2022/04/22 13:32:38;;;;;;;13.30;7.55;;;14.30;79.30;;;;;;5054056;28;20111;-78
2022/04/22 13:35:05;;;;;;;9.27;6.00;;;14.20;80.50;;;;;;5052559;28;20036;-78
2022/04/22 13:37:34;;;;;;;8.25;5.90;;;14.20;79.90;;;;;;5053709;28;20021;-78
2022/04/22 13:40:00;;;;;;;8.88;6.57;;;14.20;80.00;;;;;;5054378;28;20036;-78
2022/04/22 13:42:26;;;;;;;19.60;6.70;;;14.20;79.80;;;;;;5054944;28;20051;-78
2022/04/22 13:53:05;;;;;;;9.13;5.75;;;14.10;80.00;;;;;;5056265;28;20491;-78
2022/04/22 13:55:34;;;;;;;13.93;6.10;;;14.10;78.90;;;;;;5056773;28;20024;-78
2022/04/22 13:58:00;;;;;;;10.10;6.50;;;14.10;79.30;;;;;;5057099;28;20358;-79
2022/04/22 14:00:26;;;;;;;13.68;8.80;;;14.00;79.30;;;;;;5056183;28;20032;-78
2022/04/22 14:02:52;;;;;;;13.52;9.95;;;14.00;79.00;;;;;;5055233;28;20048;-78
2022/04/22 14:05:21;;;;;;;13.93;8.48;;;13.90;80.00;;;;;;5054441;28;20021;-78
2022/04/22 14:07:50;;;;;;;10.05;6.10;;;13.90;80.70;;;;;;5056066;28;20027;-79
2022/04/22 14:10:17;;;;;;;9.52;7.20;;;13.90;81.00;;;;;;5055869;28;20048;-79